Heflin, Louisiana
Current Conditions -  °F | °C
As of 10:36 PM on Saturday 22 Nov 2014 (Local Time) from KMNE Reporting Station
Overcast Overcast  
Wind Chill: 64°   Ceiling: 1600
Heat Index: 64°   Visibility: 10mi
Dew Point: 57°   Wind: 12mph
Humidity: 77%   Direction: 120°ESE
Pressure: 29.83"   Gusts: 18mph
Location:  32.46°N, 93.26°W
Report Text: KMNE 230436Z AUTO 12010G16KT 10SM OVC016 18/14 A2983 RMK AO2
Loading
Personal Weather Stations






























Interactive Weather Map New forecast layout! Learn more

10-Day Weather Forecast

Advertisements
Track Severe Weather on mobile